Time;durP1;ratioP1;P1;durP2;ratioP2;P2;SDS_P1;SDS_P2;PMS_P1;PMS_P2;Temp;Humidity;BMP_temperature;BMP_pressure;BME280_temperature;BME280_humidity;BME280_pressure;Samples;Min_cycle;Max_cycle;Signal;HPM_P1;HPM_P2
2022/04/27 00:01:38;;;;;;;8.00;4.93;;;16.20;99.90;;;;;;5092771;28;20455;-75
2022/04/27 00:04:05;;;;;;;10.00;6.20;;;16.20;99.90;;;;;;5107647;28;20479;-78
2022/04/27 00:06:32;;;;;;;9.80;7.20;;;16.20;99.90;;;;;;5113377;28;20447;-74
2022/04/27 00:08:59;;;;;;;9.57;6.07;;;16.20;99.90;;;;;;5112849;28;20500;-75
2022/04/27 00:11:28;;;;;;;9.10;5.90;;;16.10;99.90;;;;;;5113409;28;20923;-76
2022/04/27 00:13:56;;;;;;;9.33;6.33;;;16.10;99.90;;;;;;5111818;28;20478;-73
2022/04/27 00:16:23;;;;;;;12.50;6.60;;;16.10;99.90;;;;;;5113021;27;20446;-78
2022/04/27 00:18:50;;;;;;;8.33;5.90;;;16.10;99.90;;;;;;5112740;28;20446;-77
2022/04/27 00:21:17;;;;;;;7.97;6.30;;;16.00;99.90;;;;;;5112300;28;20992;-79
2022/04/27 00:23:45;;;;;;;9.77;5.40;;;16.10;99.90;;;;;;5112619;28;20459;-76
2022/04/27 00:26:12;;;;;;;7.93;5.07;;;16.10;99.90;;;;;;5096507;27;20479;-81
2022/04/27 00:28:41;;;;;;;7.30;4.30;;;16.10;99.90;;;;;;5092163;28;20455;-74
2022/04/27 00:31:08;;;;;;;9.47;5.00;;;16.10;99.90;;;;;;5091953;28;20700;-75
2022/04/27 00:33:35;;;;;;;6.80;3.93;;;16.00;99.90;;;;;;5091961;28;20460;-77
2022/04/27 00:36:02;;;;;;;7.73;3.87;;;15.90;99.90;;;;;;5092164;28;20463;-72
2022/04/27 00:38:29;;;;;;;6.10;3.13;;;15.80;99.90;;;;;;5092167;28;20518;-75
2022/04/27 00:40:56;;;;;;;7.10;3.07;;;15.80;99.90;;;;;;5092373;28;20463;-75
2022/04/27 00:43:41;;;;;;;7.90;3.50;;;15.70;99.90;;;;;;5092212;28;20447;-77
2022/04/27 00:46:10;;;;;;;9.43;3.10;;;15.70;99.90;;;;;;5077020;28;20498;-75
2022/04/27 00:48:39;;;;;;;8.20;4.60;;;15.70;99.90;;;;;;5097647;28;20480;-75
2022/04/27 00:51:07;;;;;;;7.07;4.30;;;15.60;99.90;;;;;;5096625;28;20488;-77
2022/04/27 00:53:35;;;;;;;9.47;5.40;;;15.60;99.90;;;;;;5096638;28;21034;-79
2022/04/27 00:56:03;;;;;;;8.67;5.03;;;15.50;99.90;;;;;;5097670;28;20543;-71
2022/04/27 00:58:30;;;;;;;8.57;5.53;;;15.60;99.90;;;;;;5091458;28;20975;-75
2022/04/27 01:00:59;;;;;;;9.83;5.50;;;15.50;99.90;;;;;;5091666;28;20459;-73
2022/04/27 01:03:26;;;;;;;11.07;5.40;;;15.50;99.90;;;;;;5091925;28;21013;-72
2022/04/27 01:05:54;;;;;;;6.77;3.83;;;15.40;99.90;;;;;;5093385;28;20440;-75
2022/04/27 01:08:21;;;;;;;7.57;4.30;;;15.30;99.90;;;;;;5109890;28;20459;-75
2022/04/27 01:10:50;;;;;;;6.53;3.57;;;15.40;99.90;;;;;;5095306;28;20857;-78
2022/04/27 01:13:18;;;;;;;7.50;3.30;;;15.30;99.90;;;;;;5076165;28;20451;-77
2022/04/27 01:15:45;;;;;;;7.40;3.10;;;15.10;99.90;;;;;;5102771;28;20955;-72
2022/04/27 01:18:14;;;;;;;6.53;2.63;;;15.20;99.90;;;;;;5091544;28;20491;-76
2022/04/27 01:20:44;;;;;;;5.47;2.80;;;15.20;99.90;;;;;;5091974;28;20484;-71
2022/04/27 01:23:12;;;;;;;6.60;2.90;;;15.20;99.90;;;;;;5090950;28;20460;-76
2022/04/27 01:25:51;;;;;;;4.20;2.40;;;15.20;99.90;;;;;;5091924;28;20456;-75
2022/04/27 01:28:20;;;;;;;6.27;3.07;;;15.20;99.90;;;;;;5102309;28;20451;-74
2022/04/27 01:30:47;;;;;;;4.97;2.40;;;15.20;99.90;;;;;;5090931;28;20899;-75
2022/04/27 01:33:15;;;;;;;5.83;2.47;;;15.20;99.90;;;;;;5091337;28;20862;-75
2022/04/27 01:35:43;;;;;;;6.30;2.80;;;15.20;99.90;;;;;;5091182;28;20459;-77
2022/04/27 01:38:10;;;;;;;7.80;2.50;;;15.30;99.90;;;;;;5090636;28;20991;-77
2022/04/27 01:40:37;;;;;;;5.77;2.80;;;15.40;99.90;;;;;;5090664;28;20455;-79
2022/04/27 01:43:05;;;;;;;7.63;2.63;;;15.30;99.90;;;;;;5090668;28;20460;-75
2022/04/27 01:45:32;;;;;;;9.10;2.63;;;15.20;99.90;;;;;;5105678;28;20530;-73
2022/04/27 01:47:59;;;;;;;5.70;3.40;;;15.10;99.90;;;;;;5109128;28;20536;-75
2022/04/27 01:50:26;;;;;;;5.10;2.50;;;15.10;99.90;;;;;;5110705;28;20491;-78
2022/04/27 01:55:39;;;;;;;7.40;2.93;;;15.10;99.90;;;;;;5098590;28;20458;-76
2022/04/27 01:58:06;;;;;;;5.53;2.90;;;15.20;99.90;;;;;;5108915;28;20483;-76
2022/04/27 02:00:34;;;;;;;5.73;2.67;;;15.20;99.90;;;;;;5109787;28;20451;-74
2022/04/27 02:03:02;;;;;;;8.60;2.80;;;15.20;99.90;;;;;;5110174;28;20447;-73
2022/04/27 02:05:29;;;;;;;6.80;2.40;;;15.20;99.90;;;;;;5111514;28;20451;-77
2022/04/27 02:07:57;;;;;;;5.00;2.37;;;15.20;99.90;;;;;;5098321;28;20472;-74
2022/04/27 02:10:24;;;;;;;9.63;3.03;;;15.20;99.90;;;;;;5092011;28;20452;-76
2022/04/27 02:12:51;;;;;;;4.20;2.20;;;15.10;99.90;;;;;;5099905;28;20503;-75
2022/04/27 02:15:18;;;;;;;6.70;2.33;;;15.00;99.90;;;;;;5109937;28;20463;-74
2022/04/27 02:17:45;;;;;;;6.00;2.60;;;15.00;99.90;;;;;;5097204;28;20840;-78
2022/04/27 02:20:13;;;;;;;5.30;2.60;;;15.10;99.90;;;;;;5069759;28;20449;-78
2022/04/27 02:22:40;;;;;;;4.47;2.80;;;15.10;99.90;;;;;;5076566;28;20480;-81
2022/04/27 02:25:09;;;;;;;7.43;2.70;;;15.20;99.90;;;;;;5090165;28;20484;-75
2022/04/27 02:27:37;;;;;;;8.47;2.73;;;15.10;99.90;;;;;;5090125;28;20857;-74
2022/04/27 02:30:05;;;;;;;5.33;2.60;;;15.10;99.90;;;;;;5090044;28;20467;-78
2022/04/27 02:32:32;;;;;;;4.67;2.83;;;15.10;99.90;;;;;;5090206;28;20456;-77
2022/04/27 02:34:59;;;;;;;5.47;2.60;;;15.10;99.90;;;;;;5090145;28;21114;-77
2022/04/27 02:37:26;;;;;;;5.20;2.20;;;15.10;99.90;;;;;;5090191;28;20484;-77
2022/04/27 02:39:53;;;;;;;4.57;2.33;;;15.20;99.90;;;;;;5090033;28;20456;-77
2022/04/27 02:42:22;;;;;;;4.50;2.10;;;15.10;99.90;;;;;;5089649;28;20460;-78
2022/04/27 02:44:49;;;;;;;4.90;2.43;;;15.10;99.90;;;;;;5089999;28;20456;-76
2022/04/27 02:47:16;;;;;;;4.40;2.50;;;15.10;99.90;;;;;;5089454;28;20472;-80
2022/04/27 02:52:28;;;;;;;4.37;2.03;;;15.10;99.90;;;;;;5090179;28;20431;-78
2022/04/27 02:54:55;;;;;;;4.73;2.60;;;15.00;99.90;;;;;;5089896;28;20444;-75
2022/04/27 02:57:24;;;;;;;4.90;2.13;;;15.00;99.90;;;;;;5089479;28;20626;-76
2022/04/27 02:59:51;;;;;;;4.77;2.83;;;15.00;99.90;;;;;;5089429;28;20456;-78
2022/04/27 03:02:18;;;;;;;5.20;2.83;;;15.00;99.90;;;;;;5089518;28;20936;-79
2022/04/27 03:04:45;;;;;;;4.83;3.03;;;15.00;99.90;;;;;;5089710;28;20803;-71
2022/04/27 03:07:13;;;;;;;4.80;3.17;;;15.00;99.90;;;;;;5089581;28;21018;-80
2022/04/27 03:09:40;;;;;;;4.73;2.60;;;15.00;99.90;;;;;;5089207;28;21042;-75
2022/04/27 03:12:08;;;;;;;5.17;3.03;;;15.00;99.90;;;;;;5089428;28;20452;-75
2022/04/27 03:14:36;;;;;;;5.33;2.57;;;15.00;99.90;;;;;;5089296;28;20448;-71
2022/04/27 03:17:03;;;;;;;4.23;2.67;;;14.90;99.90;;;;;;5088702;28;20555;-76
2022/04/27 03:19:30;;;;;;;5.53;3.00;;;14.90;99.90;;;;;;5089463;28;20424;-79
2022/04/27 03:21:57;;;;;;;4.53;2.97;;;14.90;99.90;;;;;;5089155;28;20444;-76
2022/04/27 03:24:24;;;;;;;6.37;2.73;;;14.90;99.90;;;;;;5089487;28;20497;-76
2022/04/27 03:26:52;;;;;;;6.40;3.07;;;15.00;99.90;;;;;;5089205;28;20471;-80
2022/04/27 03:29:19;;;;;;;10.53;3.27;;;14.90;99.90;;;;;;5089306;28;20456;-74
2022/04/27 03:31:48;;;;;;;7.60;2.63;;;14.90;99.90;;;;;;5088867;28;20476;-74
2022/04/27 03:34:15;;;;;;;5.40;3.20;;;14.90;99.90;;;;;;5089338;28;20444;-77
2022/04/27 03:36:42;;;;;;;5.57;3.33;;;14.90;99.90;;;;;;5088873;28;20532;-76
2022/04/27 03:39:09;;;;;;;6.50;3.20;;;15.00;99.90;;;;;;5088670;28;20906;-81
2022/04/27 03:41:36;;;;;;;5.83;4.73;;;14.90;99.90;;;;;;5088687;28;20451;-77
2022/04/27 03:44:04;;;;;;;7.37;4.57;;;15.00;99.90;;;;;;5089179;28;20460;-75
2022/04/27 03:46:31;;;;;;;7.80;5.00;;;14.90;99.90;;;;;;5092848;28;20471;-78
2022/04/27 03:48:59;;;;;;;7.50;4.73;;;14.70;99.90;;;;;;5102189;28;20455;-79
2022/04/27 03:51:26;;;;;;;6.67;3.77;;;14.70;99.90;;;;;;5088610;28;20483;-79
2022/04/27 03:53:53;;;;;;;8.23;5.10;;;14.70;99.90;;;;;;5089038;28;20453;-73
2022/04/27 03:56:20;;;;;;;8.63;4.57;;;14.70;99.90;;;;;;5103210;28;20470;-75
2022/04/27 03:58:47;;;;;;;6.13;4.30;;;14.70;99.90;;;;;;5096167;28;20494;-83
2022/04/27 04:01:14;;;;;;;6.67;5.07;;;14.70;99.90;;;;;;5102657;28;20901;-74
2022/04/27 04:03:41;;;;;;;6.73;4.23;;;14.70;99.90;;;;;;5109047;28;20455;-76
2022/04/27 04:06:10;;;;;;;6.80;4.60;;;14.70;99.90;;;;;;5099282;28;20502;-74
2022/04/27 04:08:37;;;;;;;7.83;5.03;;;14.70;99.90;;;;;;5099261;28;20448;-77
2022/04/27 04:11:04;;;;;;;11.43;4.73;;;14.70;99.90;;;;;;5109845;28;20461;-76
2022/04/27 04:13:31;;;;;;;6.30;4.33;;;14.70;99.90;;;;;;5109100;28;20447;-79
2022/04/27 04:15:58;;;;;;;9.30;4.63;;;14.80;99.90;;;;;;5088803;28;20452;-76
2022/04/27 04:18:26;;;;;;;8.23;4.63;;;14.80;99.90;;;;;;5089071;28;20507;-78
2022/04/27 04:20:53;;;;;;;10.53;4.80;;;14.80;99.90;;;;;;5089142;28;20464;-77
2022/04/27 04:23:21;;;;;;;9.13;4.30;;;14.90;99.90;;;;;;5088759;28;20456;-76
2022/04/27 04:28:32;;;;;;;7.73;4.60;;;15.00;99.90;;;;;;5106536;28;21069;-74
2022/04/27 04:31:01;;;;;;;7.27;4.63;;;15.10;99.90;;;;;;5112891;28;20459;-76
2022/04/27 04:33:28;;;;;;;8.77;5.40;;;15.30;99.90;;;;;;5100505;28;20447;-74
2022/04/27 04:35:56;;;;;;;12.50;5.40;;;15.30;99.90;;;;;;5092258;28;20467;-75
2022/04/27 04:38:25;;;;;;;13.93;7.57;;;15.40;99.90;;;;;;5092163;28;20490;-76
2022/04/27 04:40:53;;;;;;;10.20;6.37;;;15.50;99.90;;;;;;5091845;28;20437;-73
2022/04/27 04:43:20;;;;;;;12.27;5.13;;;15.50;99.90;;;;;;5093358;28;20894;-78
2022/04/27 04:45:47;;;;;;;6.90;5.07;;;15.60;99.90;;;;;;5111352;28;20451;-72
2022/04/27 04:48:15;;;;;;;14.70;5.80;;;15.70;99.90;;;;;;5112094;28;20458;-72
2022/04/27 04:50:42;;;;;;;7.23;4.93;;;15.70;99.90;;;;;;5111770;28;20891;-74
2022/04/27 04:53:09;;;;;;;9.40;5.63;;;15.90;99.90;;;;;;5112275;28;20523;-72
2022/04/27 04:55:37;;;;;;;11.40;5.00;;;16.00;99.90;;;;;;5112520;28;20538;-72
2022/04/27 04:58:05;;;;;;;8.90;5.60;;;16.00;99.90;;;;;;5112432;28;20491;-72
2022/04/27 05:00:32;;;;;;;9.17;5.90;;;16.20;99.90;;;;;;5094922;28;20455;-74
2022/04/27 05:02:59;;;;;;;9.20;5.43;;;16.30;99.90;;;;;;5097142;28;20455;-72
2022/04/27 05:05:27;;;;;;;7.93;5.43;;;16.30;99.90;;;;;;5101478;28;21239;-72
2022/04/27 05:07:54;;;;;;;10.63;6.37;;;16.30;99.90;;;;;;5112328;28;20835;-74
2022/04/27 05:10:21;;;;;;;7.80;6.03;;;16.40;99.90;;;;;;5105238;27;20459;-74
2022/04/27 05:12:50;;;;;;;17.13;6.77;;;16.50;99.90;;;;;;5090557;28;20453;-77
2022/04/27 05:15:17;;;;;;;10.50;6.07;;;16.50;99.90;;;;;;5090787;28;20489;-77
2022/04/27 05:17:44;;;;;;;10.67;6.37;;;16.40;99.90;;;;;;5091259;28;20973;-74
2022/04/27 05:20:12;;;;;;;12.30;7.07;;;16.50;99.90;;;;;;5091166;28;20459;-73
2022/04/27 05:22:39;;;;;;;8.87;6.57;;;16.60;99.90;;;;;;5091069;28;20459;-73
2022/04/27 05:25:09;;;;;;;9.33;5.87;;;16.70;99.90;;;;;;5096371;28;20464;-72
2022/04/27 05:27:36;;;;;;;12.83;6.93;;;16.80;99.90;;;;;;5110774;28;20467;-74
2022/04/27 05:32:51;;;;;;;9.70;5.57;;;17.10;99.90;;;;;;5099842;28;20439;-71
2022/04/27 05:35:18;;;;;;;8.40;6.10;;;17.20;99.90;;;;;;5111326;28;20447;-71
2022/04/27 05:37:45;;;;;;;10.07;6.70;;;17.20;99.90;;;;;;5111315;28;20471;-72
2022/04/27 05:40:12;;;;;;;12.93;7.87;;;17.20;99.90;;;;;;5110550;28;20454;-70
2022/04/27 05:42:40;;;;;;;8.37;6.40;;;17.20;99.90;;;;;;5111365;28;20537;-72
2022/04/27 05:45:09;;;;;;;10.23;7.10;;;17.30;99.90;;;;;;5093584;28;20457;-71
2022/04/27 05:47:37;;;;;;;13.10;6.10;;;17.40;99.90;;;;;;5090645;28;20475;-73
2022/04/27 05:50:05;;;;;;;7.80;5.53;;;17.50;99.90;;;;;;5090515;28;20452;-72
2022/04/27 05:52:32;;;;;;;8.17;5.53;;;17.50;99.90;;;;;;5095074;28;20917;-70
2022/04/27 05:55:01;;;;;;;9.00;6.17;;;17.60;99.90;;;;;;5090434;28;20467;-71
2022/04/27 05:57:28;;;;;;;15.40;5.33;;;17.70;99.90;;;;;;5092375;28;20848;-70
2022/04/27 05:59:55;;;;;;;7.00;5.63;;;17.80;99.90;;;;;;5108103;28;20483;-70
2022/04/27 06:02:23;;;;;;;13.33;6.27;;;17.80;99.90;;;;;;5099487;28;20459;-70
2022/04/27 06:04:50;;;;;;;7.43;4.73;;;17.90;99.90;;;;;;5104179;28;20448;-71
2022/04/27 06:07:18;;;;;;;8.97;5.47;;;18.00;99.90;;;;;;5104778;28;20463;-71
2022/04/27 06:09:45;;;;;;;8.43;4.90;;;18.10;99.90;;;;;;5110516;28;20450;-72
2022/04/27 06:12:12;;;;;;;8.73;5.80;;;18.20;99.90;;;;;;5110460;28;20459;-72
2022/04/27 06:14:39;;;;;;;17.53;12.90;;;18.30;99.90;;;;;;5094438;28;20444;-74
2022/04/27 06:17:06;;;;;;;9.83;5.40;;;18.40;99.90;;;;;;5098820;28;20479;-69
2022/04/27 06:19:35;;;;;;;8.10;5.43;;;18.40;99.90;;;;;;5105155;28;20575;-73
2022/04/27 06:22:02;;;;;;;10.30;4.80;;;18.50;99.90;;;;;;5089657;28;20531;-70
2022/04/27 06:24:29;;;;;;;12.27;5.87;;;18.70;99.90;;;;;;5091735;28;20483;-71
2022/04/27 06:26:57;;;;;;;8.20;5.20;;;18.90;99.90;;;;;;5107978;28;20471;-71
2022/04/27 06:29:24;;;;;;;10.37;5.70;;;18.90;99.90;;;;;;5105257;28;20810;-72
2022/04/27 06:31:51;;;;;;;9.40;5.53;;;19.00;99.90;;;;;;5089522;28;20456;-71
2022/04/27 06:34:18;;;;;;;12.40;6.37;;;18.90;99.90;;;;;;5089766;28;20467;-71
2022/04/27 06:36:47;;;;;;;11.37;7.00;;;19.20;99.90;;;;;;5092129;28;20854;-69
2022/04/27 06:39:15;;;;;;;8.17;6.27;;;19.30;99.90;;;;;;5109914;28;20474;-72
2022/04/27 06:41:43;;;;;;;6.80;6.10;;;19.40;99.90;;;;;;5110450;28;20459;-70
2022/04/27 06:44:10;;;;;;;10.77;5.73;;;19.50;99.90;;;;;;5107071;28;20490;-74
2022/04/27 06:46:37;;;;;;;11.83;6.57;;;19.60;99.90;;;;;;5088020;28;20583;-76
2022/04/27 06:49:04;;;;;;;9.90;6.37;;;19.80;99.90;;;;;;5088177;28;20452;-77
2022/04/27 06:51:31;;;;;;;9.20;6.60;;;20.00;99.90;;;;;;5085391;28;20495;-74
2022/04/27 06:54:00;;;;;;;10.70;6.50;;;20.20;99.90;;;;;;5086425;28;20459;-75
2022/04/27 06:56:27;;;;;;;13.10;6.50;;;20.20;99.90;;;;;;5086321;28;20468;-75
2022/04/27 06:58:54;;;;;;;14.13;6.90;;;20.30;99.90;;;;;;5086305;28;20488;-76
2022/04/27 07:01:21;;;;;;;11.40;5.97;;;20.40;99.90;;;;;;5086259;28;20456;-75
2022/04/27 07:03:53;;;;;;;12.00;5.40;;;20.60;99.90;;;;;;5086852;28;20469;-75
2022/04/27 07:06:21;;;;;;;10.83;6.20;;;20.70;99.90;;;;;;5089161;28;20908;-77
2022/04/27 07:08:48;;;;;;;13.23;7.03;;;20.70;99.90;;;;;;5089603;28;20479;-76
2022/04/27 07:11:17;;;;;;;9.13;6.70;;;20.60;99.90;;;;;;5089735;28;20550;-74
2022/04/27 07:13:44;;;;;;;9.83;5.80;;;20.80;99.90;;;;;;5089522;28;20441;-75
2022/04/27 07:16:11;;;;;;;12.73;6.40;;;21.00;99.90;;;;;;5089598;28;20494;-75
2022/04/27 07:18:38;;;;;;;7.40;5.57;;;21.20;99.90;;;;;;5089681;28;20910;-75
2022/04/27 07:21:08;;;;;;;10.93;5.93;;;21.50;99.90;;;;;;5089592;28;20455;-75
2022/04/27 07:23:35;;;;;;;12.60;5.33;;;21.60;99.90;;;;;;5089292;28;20556;-76
2022/04/27 07:26:02;;;;;;;8.73;5.37;;;21.70;99.90;;;;;;5088835;28;20492;-76
2022/04/27 07:28:31;;;;;;;12.53;6.63;;;21.70;99.90;;;;;;5089186;28;20467;-75
2022/04/27 07:30:58;;;;;;;8.03;5.10;;;21.80;99.90;;;;;;5089230;28;20828;-76
2022/04/27 07:33:25;;;;;;;9.23;5.03;;;21.80;99.90;;;;;;5089361;28;20995;-74
2022/04/27 07:35:52;;;;;;;7.50;4.97;;;21.90;99.90;;;;;;5088823;28;20940;-75
2022/04/27 07:38:19;;;;;;;11.10;5.17;;;22.10;99.90;;;;;;5089261;28;20463;-76
2022/04/27 07:40:46;;;;;;;12.70;5.47;;;22.30;99.90;;;;;;5089051;28;20599;-75
2022/04/27 07:43:14;;;;;;;9.70;5.03;;;22.30;99.90;;;;;;5089201;28;20542;-76
2022/04/27 07:45:44;;;;;;;8.63;5.00;;;22.30;99.90;;;;;;5089053;28;20932;-76
2022/04/27 07:48:11;;;;;;;9.47;4.50;;;22.50;99.90;;;;;;5089197;28;20459;-74
2022/04/27 07:50:39;;;;;;;7.17;4.70;;;22.70;99.90;;;;;;5088963;28;20606;-76
2022/04/27 07:53:06;;;;;;;9.37;5.90;;;22.90;99.90;;;;;;5089120;28;20456;-75
2022/04/27 07:55:33;;;;;;;9.67;7.43;;;23.00;99.90;;;;;;5089032;28;20784;-74
2022/04/27 07:58:00;;;;;;;6.60;4.60;;;23.00;99.90;;;;;;5088879;28;20472;-75
2022/04/27 08:00:29;;;;;;;7.77;5.87;;;23.10;99.90;;;;;;5088921;28;20488;-75
2022/04/27 08:02:58;;;;;;;6.93;4.37;;;23.20;99.90;;;;;;5091571;28;20456;-75
2022/04/27 08:05:26;;;;;;;8.07;4.70;;;23.40;99.90;;;;;;5092928;28;20452;-75
2022/04/27 08:07:53;;;;;;;8.20;4.57;;;23.40;99.90;;;;;;5092735;28;20644;-76
2022/04/27 08:10:21;;;;;;;11.80;5.40;;;23.50;99.90;;;;;;5093150;28;20451;-75
2022/04/27 08:12:49;;;;;;;9.07;4.53;;;23.70;99.90;;;;;;5092717;28;20447;-71
2022/04/27 08:15:17;;;;;;;8.80;4.53;;;23.60;99.90;;;;;;5107507;28;20447;-73
2022/04/27 08:17:55;;;;;;;6.00;4.23;;;23.70;99.90;;;;;;5110072;28;20471;-73
2022/04/27 08:23:11;;;;;;;8.07;4.70;;;23.80;99.80;;;;;;5082699;28;20471;-71
2022/04/27 08:25:39;;;;;;;17.47;10.27;;;23.50;99.60;;;;;;5105434;28;20444;-72
2022/04/27 08:28:07;;;;;;;8.40;5.73;;;23.40;99.80;;;;;;5091944;28;20444;-71
2022/04/27 08:30:35;;;;;;;7.07;5.60;;;23.40;99.60;;;;;;5091482;28;20456;-71
2022/04/27 08:33:03;;;;;;;11.70;9.00;;;23.60;99.90;;;;;;5091587;28;20464;-70
2022/04/27 08:35:32;;;;;;;12.20;5.53;;;23.90;99.40;;;;;;5091131;28;20483;-71
2022/04/27 08:37:59;;;;;;;8.70;5.17;;;23.90;99.30;;;;;;5091918;28;20497;-71
2022/04/27 08:40:27;;;;;;;6.50;4.73;;;24.10;99.30;;;;;;5091432;28;20480;-68
2022/04/27 08:42:54;;;;;;;6.43;5.10;;;24.20;97.80;;;;;;5091019;28;20960;-71
2022/04/27 08:45:22;;;;;;;8.30;4.60;;;24.20;97.20;;;;;;5091591;28;20452;-72
2022/04/27 08:47:52;;;;;;;9.13;5.50;;;24.30;97.70;;;;;;5091372;28;20460;-69
2022/04/27 08:50:21;;;;;;;9.60;4.70;;;24.50;96.60;;;;;;5090565;28;20472;-70
2022/04/27 08:52:50;;;;;;;9.17;5.00;;;24.60;96.70;;;;;;5090652;28;20455;-69
2022/04/27 08:55:19;;;;;;;7.47;4.70;;;24.50;95.50;;;;;;5091372;28;20448;-71
2022/04/27 08:57:48;;;;;;;6.73;5.00;;;24.60;94.80;;;;;;5091050;28;20463;-68
2022/04/27 09:00:17;;;;;;;6.30;4.30;;;24.70;95.00;;;;;;5091312;28;20584;-70
2022/04/27 09:02:44;;;;;;;16.10;13.00;;;24.70;93.90;;;;;;5091205;28;20456;-69
2022/04/27 09:05:13;;;;;;;15.43;10.17;;;24.80;93.70;;;;;;5090947;28;20567;-70
2022/04/27 09:07:41;;;;;;;10.67;6.77;;;24.80;93.90;;;;;;5090966;28;20578;-72
2022/04/27 09:10:11;;;;;;;13.47;9.10;;;24.90;93.10;;;;;;5091319;28;20444;-71
2022/04/27 09:12:46;;;;;;;6.80;4.80;;;25.00;91.80;;;;;;5091143;28;20440;-70
2022/04/27 09:15:14;;;;;;;7.07;4.37;;;25.20;91.20;;;;;;5091779;28;20459;-69
2022/04/27 09:23:22;;;;;;;8.87;5.30;;;25.20;92.40;;;;;;5091008;28;20463;-70
2022/04/27 09:25:52;;;;;;;13.70;5.80;;;25.30;91.70;;;;;;5091090;28;20491;-69
2022/04/27 09:28:22;;;;;;;9.00;5.70;;;25.50;91.50;;;;;;5090760;28;20487;-68
2022/04/27 09:30:50;;;;;;;9.80;4.30;;;25.70;90.20;;;;;;5090886;28;21150;-71
2022/04/27 09:33:31;;;;;;;8.93;5.50;;;25.90;87.20;;;;;;5090136;28;21039;-69
2022/04/27 09:35:58;;;;;;;8.07;4.90;;;26.20;84.70;;;;;;5088483;28;20952;-72
2022/04/27 09:38:26;;;;;;;10.80;6.03;;;26.40;85.70;;;;;;5090030;28;20463;-72
2022/04/27 09:40:57;;;;;;;8.17;4.70;;;26.60;83.40;;;;;;5090104;28;20979;-72
2022/04/27 09:43:44;;;;;;;9.80;4.97;;;26.70;81.00;;;;;;5090319;28;20453;-70
2022/04/27 09:46:22;;;;;;;6.20;4.80;;;26.60;75.70;;;;;;5089229;28;20478;-71
2022/04/27 09:49:08;;;;;;;5.70;4.00;;;26.80;75.80;;;;;;5090765;28;20533;-71
2022/04/27 09:51:36;;;;;;;8.87;5.30;;;27.00;73.60;;;;;;5088884;28;20506;-69
2022/04/27 09:54:04;;;;;;;8.27;6.00;;;27.10;73.10;;;;;;5110473;28;20482;-70
2022/04/27 09:56:37;;;;;;;9.90;4.13;;;27.20;73.20;;;;;;5101882;28;20825;-72
2022/04/27 09:59:06;;;;;;;6.97;4.13;;;27.10;73.50;;;;;;5090282;28;20459;-71
2022/04/27 10:01:36;;;;;;;8.60;4.27;;;27.10;74.50;;;;;;5088165;28;20479;-72
2022/04/27 10:04:05;;;;;;;10.00;4.73;;;27.30;76.20;;;;;;5089856;28;20472;-72
2022/04/27 10:06:33;;;;;;;7.13;4.67;;;27.30;74.50;;;;;;5090092;28;20451;-71
2022/04/27 10:09:01;;;;;;;6.57;4.43;;;27.00;74.30;;;;;;5090647;28;20956;-71
2022/04/27 10:11:31;;;;;;;10.63;5.47;;;26.80;72.60;;;;;;5088615;28;20840;-69
2022/04/27 10:14:00;;;;;;;11.20;6.77;;;26.90;75.00;;;;;;5100047;28;20530;-71
2022/04/27 10:16:28;;;;;;;18.20;15.10;;;27.20;73.10;;;;;;5107137;28;20459;-71
2022/04/27 10:18:55;;;;;;;9.93;8.10;;;27.40;67.00;;;;;;5107744;28;20443;-70
2022/04/27 10:21:39;;;;;;;7.80;6.00;;;27.70;67.10;;;;;;5109938;28;20482;-71
2022/04/27 10:24:07;;;;;;;10.57;6.20;;;27.90;67.80;;;;;;5096151;28;20480;-71
2022/04/27 10:26:34;;;;;;;5.90;4.20;;;28.10;68.20;;;;;;5089192;28;20523;-69
2022/04/27 10:29:05;;;;;;;11.50;4.60;;;28.30;68.60;;;;;;5087182;28;20556;-67
2022/04/27 10:32:05;;;;;;;8.23;4.70;;;28.20;68.20;;;;;;5087332;28;20452;-67
2022/04/27 10:34:33;;;;;;;7.50;5.20;;;28.30;66.20;;;;;;5088486;28;20531;-70
2022/04/27 10:37:01;;;;;;;7.40;3.60;;;28.60;67.10;;;;;;5087934;28;20475;-66
2022/04/27 10:39:29;;;;;;;6.80;4.13;;;28.60;64.30;;;;;;5088118;28;20447;-67
2022/04/27 10:42:32;;;;;;;9.20;3.10;;;28.60;64.50;;;;;;5087938;28;20947;-68
2022/04/27 10:45:12;;;;;;;9.93;6.10;;;28.50;63.80;;;;;;5089716;28;20452;-67
2022/04/27 10:47:43;;;;;;;11.43;5.60;;;28.70;65.90;;;;;;5090011;28;20979;-68
2022/04/27 10:50:23;;;;;;;9.40;3.40;;;28.90;64.40;;;;;;5089557;28;20558;-67
2022/04/27 10:52:53;;;;;;;7.93;3.50;;;29.10;62.20;;;;;;5088174;28;20467;-70
2022/04/27 10:55:41;;;;;;;12.00;3.83;;;29.30;60.00;;;;;;5089755;28;20455;-73
2022/04/27 10:58:14;;;;;;;6.73;3.13;;;29.50;59.60;;;;;;5089839;28;20555;-71
2022/04/27 11:01:20;;;;;;;8.67;3.20;;;29.60;59.60;;;;;;5089640;28;20496;-71
2022/04/27 11:04:13;;;;;;;11.80;3.47;;;29.60;59.00;;;;;;5089634;28;20487;-68
2022/04/27 11:07:12;;;;;;;9.47;3.17;;;29.50;58.90;;;;;;5089437;28;20468;-74
2022/04/27 11:10:16;;;;;;;5.60;3.20;;;29.30;58.90;;;;;;5065216;28;20451;-68
2022/04/27 11:12:48;;;;;;;8.77;3.80;;;29.60;59.20;;;;;;5089622;28;20455;-69
2022/04/27 11:15:20;;;;;;;7.27;2.80;;;29.70;59.60;;;;;;5089174;28;20459;-69
2022/04/27 11:17:53;;;;;;;6.53;3.23;;;29.80;57.60;;;;;;5089499;28;20525;-69
2022/04/27 11:20:40;;;;;;;7.80;3.60;;;29.90;57.90;;;;;;5089529;28;20488;-69
2022/04/27 11:23:08;;;;;;;6.53;3.60;;;29.80;57.60;;;;;;5089612;28;20576;-69
2022/04/27 11:25:37;;;;;;;7.87;2.97;;;30.00;57.90;;;;;;5089581;28;20447;-69
2022/04/27 11:28:06;;;;;;;7.90;3.10;;;30.10;57.10;;;;;;5089087;28;20498;-69
2022/04/27 11:30:34;;;;;;;7.13;3.13;;;30.20;56.50;;;;;;5089584;28;20459;-68
2022/04/27 11:33:02;;;;;;;8.07;3.00;;;30.20;55.70;;;;;;5089299;28;20452;-69
2022/04/27 11:35:38;;;;;;;6.50;3.10;;;30.00;55.20;;;;;;5089634;28;20444;-69
2022/04/27 11:38:08;;;;;;;5.17;3.30;;;30.10;55.30;;;;;;5091744;28;20521;-69
2022/04/27 11:40:38;;;;;;;7.13;3.90;;;30.30;55.10;;;;;;5093374;28;20496;-69
2022/04/27 11:43:06;;;;;;;5.93;2.77;;;30.00;55.40;;;;;;5093412;28;20505;-69
2022/04/27 11:45:34;;;;;;;7.77;3.13;;;29.90;56.10;;;;;;5093404;28;20490;-68
2022/04/27 11:48:02;;;;;;;7.67;3.20;;;30.00;55.80;;;;;;5093403;28;20475;-68
2022/04/27 11:50:32;;;;;;;5.73;2.67;;;29.80;55.40;;;;;;5093019;28;20479;-69
2022/04/27 11:53:00;;;;;;;7.67;2.60;;;29.70;54.80;;;;;;5092924;28;20952;-69
2022/04/27 11:55:29;;;;;;;6.70;2.77;;;29.90;53.50;;;;;;5093205;28;20484;-69
2022/04/27 11:57:56;;;;;;;6.87;2.60;;;29.70;52.10;;;;;;5093176;28;20468;-69
2022/04/27 12:00:25;;;;;;;7.60;2.80;;;29.10;52.70;;;;;;5093057;28;20494;-69
2022/04/27 12:02:53;;;;;;;7.33;2.80;;;29.20;53.70;;;;;;5093071;28;20876;-68
2022/04/27 12:05:29;;;;;;;12.83;3.10;;;29.50;53.50;;;;;;5093174;28;20475;-69
2022/04/27 12:07:57;;;;;;;6.83;3.13;;;29.60;54.20;;;;;;5092803;28;20554;-69
2022/04/27 12:10:24;;;;;;;5.87;2.70;;;30.10;54.90;;;;;;5092937;28;20455;-69
2022/04/27 12:12:53;;;;;;;6.43;3.13;;;30.40;54.00;;;;;;5092982;28;20452;-69
2022/04/27 12:15:26;;;;;;;11.27;6.20;;;30.00;53.10;;;;;;5093077;28;20459;-70
2022/04/27 12:17:55;;;;;;;7.33;2.40;;;29.70;53.70;;;;;;5092591;28;20472;-68
2022/04/27 12:20:43;;;;;;;4.90;2.20;;;29.50;53.90;;;;;;5092715;28;20507;-69
2022/04/27 12:23:12;;;;;;;5.13;1.90;;;29.40;53.00;;;;;;5088187;28;20488;-68
2022/04/27 12:25:45;;;;;;;7.90;2.47;;;29.20;53.30;;;;;;5092635;28;20475;-69
2022/04/27 12:28:15;;;;;;;5.70;2.67;;;29.20;52.70;;;;;;5092115;28;20479;-69
2022/04/27 12:30:51;;;;;;;7.10;4.73;;;29.40;52.80;;;;;;5092489;28;20868;-69
2022/04/27 12:33:22;;;;;;;7.77;2.77;;;29.30;53.70;;;;;;5092506;28;20463;-69
2022/04/27 12:38:38;;;;;;;5.37;2.47;;;29.90;53.50;;;;;;5092393;28;20427;-69
2022/04/27 12:41:08;;;;;;;8.30;2.60;;;29.80;53.80;;;;;;5092352;28;20505;-69
2022/04/27 12:43:48;;;;;;;9.83;2.80;;;29.50;53.70;;;;;;5092546;28;20463;-69
2022/04/27 12:46:15;;;;;;;5.60;2.77;;;29.30;53.90;;;;;;5092422;28;20518;-69
2022/04/27 12:48:42;;;;;;;7.97;2.60;;;29.00;54.30;;;;;;5091147;28;20456;-69
2022/04/27 12:51:10;;;;;;;6.13;2.20;;;28.80;53.20;;;;;;5091467;28;20490;-69
2022/04/27 12:53:37;;;;;;;6.13;1.93;;;28.60;53.20;;;;;;5092022;28;20471;-68
2022/04/27 12:56:09;;;;;;;7.17;2.30;;;28.60;51.30;;;;;;5092143;28;20479;-69
2022/04/27 12:58:39;;;;;;;5.53;2.37;;;28.70;51.60;;;;;;5092084;28;20474;-69
2022/04/27 13:01:07;;;;;;;4.77;2.20;;;28.90;52.70;;;;;;5092752;28;20574;-70
2022/04/27 13:03:35;;;;;;;4.77;1.97;;;28.90;54.70;;;;;;5091915;28;20870;-69
2022/04/27 13:06:02;;;;;;;10.73;2.80;;;28.90;53.70;;;;;;5091769;28;21048;-68
2022/04/27 13:08:29;;;;;;;6.53;2.10;;;28.80;53.60;;;;;;5092046;28;20452;-68
2022/04/27 13:13:42;;;;;;;7.90;2.30;;;28.50;54.40;;;;;;5091922;28;20435;-69
2022/04/27 13:16:09;;;;;;;8.20;3.03;;;28.50;55.60;;;;;;5091423;28;20484;-69
2022/04/27 13:18:37;;;;;;;6.37;2.73;;;28.40;55.50;;;;;;5091669;28;20457;-69
2022/04/27 13:21:05;;;;;;;4.70;2.30;;;28.20;55.40;;;;;;5091443;28;20487;-71